Kenya Airways Virtual Airport Information Service

Mumbai Chhatrapati Shivaji International Airport

ICAO: VABB Country: India
Latitude: 19.0887 Longitude: 72.8679
Latest Arrival : KQA204 (HKJK-VABB) Latest Departure : KQA205 (VABB-HKJK)


WX CaptureLIVE
Data provided by noaa.gov | Recorded at 18:42:00

METAR : VABB 181800Z 34005KT 2200 -TSRA SCT015 FEW030CB BKN090 25/24 Q1007 TEMPO 1500 TSRA

TAF : VABB 181700Z 1818/1924 30006KT 2500 -RA HZ FEW012 SCT018 FEW025TCU BKN090 TEMPO 1818/1906 30008G18KT 1500 -TSRA SHRA SCT010 FEW030CB BKN080 BECMG 1903/1905 3000 HZ TEMPO 1906/1918 1500 -TSRA SHRA SCT010 FEW030CB BKN080 BECMG 1913/1915 2500 -RA HZ FEW012 SCT018 FEW025TCU BKN090 TEMPO 1918/1924 1500 -TSRA SHRA SCT010 FEW030CB BKN080


Runway Data for VABB
Data provided by openaviationdata.com

Runway ID Mag Var Hdg Length Elevation Surface ILS Freq ILS Id ILS Slope

Mumbai Chhatrapati Shivaji International Airport, India
Use only for reference purposes